Time,TemperatureF,DewpointF,PressureIn,WindDirection,WindDirectionDegrees,WindSpeedMPH,WindSpeedGustMPH,Humidity,HourlyPrecipIn,Conditions,Clouds,dailyrainin,SoftwareType,DateUTC
2013-01-28 00:00:00,7.3,3.2,29.82,SSW,202,0.0,0.0,83,0.00,,,0.00,Weather View 32 v70,2013-01-28 05:00:00,
2013-01-28 00:03:00,7.3,3.2,29.82,SSW,202,0.0,0.0,83,0.00,,,0.00,Weather View 32 v70,2013-01-28 05:03:00,
2013-01-28 00:08:00,7.2,3.9,29.82,SSW,202,0.0,0.0,86,0.00,,,0.00,Weather View 32 v70,2013-01-28 05:08:00,
2013-01-28 00:13:00,6.9,3.6,29.82,SSW,202,0.0,0.0,86,0.00,,,0.00,Weather View 32 v70,2013-01-28 05:13:00,
2013-01-28 00:18:00,6.7,3.9,29.82,SSW,202,0.0,0.0,88,0.00,,,0.00,Weather View 32 v70,2013-01-28 05:18:00,
2013-01-28 00:23:00,6.6,4.3,29.81,SSE,157,0.0,0.0,90,0.00,,,0.00,Weather View 32 v70,2013-01-28 05:23:00,
2013-01-28 00:28:00,6.9,4.6,29.81,ENE,67,0.0,0.0,90,0.00,,,0.00,Weather View 32 v70,2013-01-28 05:28:00,
2013-01-28 00:33:00,6.6,4.1,29.81,ESE,112,0.0,0.0,89,0.00,,,0.00,Weather View 32 v70,2013-01-28 05:33:00,
2013-01-28 00:38:00,6.7,4.6,29.81,ESE,112,0.0,0.0,91,0.00,,,0.00,Weather View 32 v70,2013-01-28 05:38:00,
2013-01-28 00:43:00,7.0,5.4,29.81,ESE,112,0.0,0.0,93,0.00,,,0.00,Weather View 32 v70,2013-01-28 05:43:00,
2013-01-28 00:48:00,6.8,4.7,29.81,ESE,112,0.0,0.0,91,0.00,,,0.00,Weather View 32 v70,2013-01-28 05:48:00,
2013-01-28 00:53:00,6.4,4.1,29.82,ESE,112,0.0,0.0,90,0.00,,,0.00,Weather View 32 v70,2013-01-28 05:53:00,
2013-01-28 00:58:00,6.1,3.6,29.82,ESE,112,0.0,0.0,89,0.00,,,0.00,Weather View 32 v70,2013-01-28 05:58:00,
2013-01-28 01:03:00,6.1,4.0,29.82,ESE,112,0.0,0.0,91,0.00,,,0.00,Weather View 32 v70,2013-01-28 06:03:00,
2013-01-28 01:08:00,6.3,4.5,29.82,ESE,112,0.0,0.0,92,0.00,,,0.00,Weather View 32 v70,2013-01-28 06:08:00,
2013-01-28 01:13:00,6.4,4.8,29.82,ESE,112,0.0,0.0,93,0.00,,,0.00,Weather View 32 v70,2013-01-28 06:13:00,
2013-01-28 01:18:00,6.8,5.2,29.82,ESE,112,0.0,0.0,93,0.00,,,0.00,Weather View 32 v70,2013-01-28 06:18:00,
2013-01-28 01:23:00,7.2,5.8,29.82,ESE,112,0.0,0.0,94,0.00,,,0.00,Weather View 32 v70,2013-01-28 06:23:00,
2013-01-28 01:28:00,7.6,6.0,29.82,ESE,112,0.0,0.0,93,0.00,,,0.00,Weather View 32 v70,2013-01-28 06:28:00,
2013-01-28 01:33:00,8.0,5.9,29.82,ESE,112,0.0,0.0,91,0.00,,,0.00,Weather View 32 v70,2013-01-28 06:33:00,
2013-01-28 01:38:00,8.4,6.8,29.82,ESE,112,0.0,0.0,93,0.00,,,0.00,Weather View 32 v70,2013-01-28 06:38:00,
2013-01-28 01:43:00,8.8,6.5,29.82,ESE,112,0.0,0.0,90,0.00,,,0.00,Weather View 32 v70,2013-01-28 06:43:00,
2013-01-28 01:48:00,8.8,6.5,29.81,ESE,112,0.0,0.0,90,0.00,,,0.00,Weather View 32 v70,2013-01-28 06:48:00,
2013-01-28 01:53:00,8.8,6.5,29.81,ESE,112,0.0,0.0,90,0.00,,,0.00,Weather View 32 v70,2013-01-28 06:53:00,
2013-01-28 01:58:00,8.8,6.7,29.81,ESE,112,0.0,0.0,91,0.00,,,0.00,Weather View 32 v70,2013-01-28 06:58:00,
2013-01-28 02:03:00,8.6,6.8,29.81,ENE,67,0.0,0.0,92,0.00,,,0.00,Weather View 32 v70,2013-01-28 07:03:00,
2013-01-28 02:08:00,8.2,6.1,29.81,ENE,67,0.0,0.0,91,0.00,,,0.00,Weather View 32 v70,2013-01-28 07:08:00,
2013-01-28 02:13:00,8.0,6.4,29.81,ENE,67,0.0,0.0,93,0.00,,,0.00,Weather View 32 v70,2013-01-28 07:13:00,
2013-01-28 02:18:00,8.1,6.5,29.80,ENE,67,0.0,0.0,93,0.00,,,0.00,Weather View 32 v70,2013-01-28 07:18:00,
2013-01-28 02:23:00,8.1,6.7,29.80,ESE,112,0.0,0.0,94,0.00,,,0.00,Weather View 32 v70,2013-01-28 07:23:00,
2013-01-28 02:28:00,8.2,6.8,29.80,SSE,157,0.0,0.0,94,0.00,,,0.00,Weather View 32 v70,2013-01-28 07:28:00,
2013-01-28 02:33:00,8.1,6.7,29.80,SSE,157,0.0,0.0,94,0.00,,,0.00,Weather View 32 v70,2013-01-28 07:33:00,
2013-01-28 02:38:00,7.9,5.3,29.79,SSE,157,0.0,0.0,89,0.00,,,0.00,Weather View 32 v70,2013-01-28 07:38:00,
2013-01-28 02:43:00,8.0,5.2,29.79,South,180,0.0,0.0,88,0.00,,,0.00,Weather View 32 v70,2013-01-28 07:43:00,
2013-01-28 02:48:00,8.3,6.0,29.79,South,180,0.0,0.0,90,0.00,,,0.00,Weather View 32 v70,2013-01-28 07:48:00,
2013-01-28 02:53:00,8.1,5.8,29.79,South,180,0.0,0.0,90,0.00,,,0.00,Weather View 32 v70,2013-01-28 07:53:00,
2013-01-28 02:58:00,7.8,6.0,29.79,South,180,0.0,0.0,92,0.00,,,0.00,Weather View 32 v70,2013-01-28 07:58:00,
2013-01-28 03:03:00,7.6,5.3,29.79,South,180,0.0,0.0,90,0.00,,,0.00,Weather View 32 v70,2013-01-28 08:03:00,
2013-01-28 03:08:00,7.7,5.4,29.79,South,180,0.0,0.0,90,0.00,,,0.00,Weather View 32 v70,2013-01-28 08:08:00,
2013-01-28 03:13:00,7.6,5.8,29.79,South,180,0.0,0.0,92,0.00,,,0.00,Weather View 32 v70,2013-01-28 08:13:00,
2013-01-28 03:18:00,7.6,6.0,29.79,South,180,0.0,0.0,93,0.00,,,0.00,Weather View 32 v70,2013-01-28 08:18:00,
2013-01-28 03:23:00,7.4,5.8,29.79,South,180,0.0,0.0,93,0.00,,,0.00,Weather View 32 v70,2013-01-28 08:23:00,
2013-01-28 03:28:00,7.3,5.7,29.79,South,180,0.0,0.0,93,0.00,,,0.00,Weather View 32 v70,2013-01-28 08:28:00,
2013-01-28 03:33:00,7.1,6.0,29.79,South,180,0.0,0.0,95,0.00,,,0.00,Weather View 32 v70,2013-01-28 08:33:00,
2013-01-28 03:38:00,7.1,6.2,29.78,NNE,22,0.0,0.0,96,0.00,,,0.00,Weather View 32 v70,2013-01-28 08:38:00,
2013-01-28 03:43:00,7.0,6.1,29.78,NNW,337,0.0,0.0,96,0.00,,,0.00,Weather View 32 v70,2013-01-28 08:43:00,
2013-01-28 03:49:00,6.9,6.2,29.78,NNE,22,0.0,0.0,97,0.00,,,0.00,Weather View 32 v70,2013-01-28 08:49:00,
2013-01-28 03:54:00,6.8,6.1,29.77,SSW,202,0.0,0.0,97,0.00,,,0.00,Weather View 32 v70,2013-01-28 08:54:00,
2013-01-28 03:59:00,6.7,6.3,29.77,NW,315,0.0,0.0,98,0.00,,,0.00,Weather View 32 v70,2013-01-28 08:59:00,
2013-01-28 04:04:00,6.7,6.3,29.77,ESE,112,0.0,0.0,98,0.00,,,0.00,Weather View 32 v70,2013-01-28 09:04:00,
2013-01-28 04:09:00,6.6,5.7,29.77,SSE,157,0.0,0.0,96,0.00,,,0.00,Weather View 32 v70,2013-01-28 09:09:00,
2013-01-28 04:14:00,6.6,5.7,29.77,SSE,157,0.0,0.0,96,0.00,,,0.00,Weather View 32 v70,2013-01-28 09:14:00,
2013-01-28 04:19:00,6.6,5.5,29.77,SSE,157,0.0,0.0,95,0.00,,,0.00,Weather View 32 v70,2013-01-28 09:19:00,
2013-01-28 04:24:00,6.6,5.0,29.77,SSE,157,0.0,0.0,93,0.00,,,0.00,Weather View 32 v70,2013-01-28 09:24:00,
2013-01-28 04:29:00,6.6,5.7,29.77,SSE,157,0.0,0.0,96,0.00,,,0.00,Weather View 32 v70,2013-01-28 09:29:00,
2013-01-28 04:34:00,6.9,6.7,29.76,NNE,22,0.0,0.0,99,0.00,,,0.00,Weather View 32 v70,2013-01-28 09:34:00,
2013-01-28 04:39:00,7.1,6.9,29.76,NNE,22,0.0,0.0,99,0.00,,,0.00,Weather View 32 v70,2013-01-28 09:39:00,
2013-01-28 04:44:00,7.4,7.2,29.76,NNE,22,0.0,0.0,99,0.00,,,0.00,Weather View 32 v70,2013-01-28 09:44:00,
2013-01-28 04:49:00,7.7,6.6,29.76,NNE,22,0.0,0.0,95,0.00,,,0.00,Weather View 32 v70,2013-01-28 09:49:00,
2013-01-28 04:54:00,8.2,7.3,29.76,NNE,22,0.0,0.0,96,0.00,,,0.00,Weather View 32 v70,2013-01-28 09:54:00,
2013-01-28 04:59:00,8.6,7.7,29.75,NNE,22,0.0,0.0,96,0.00,,,0.00,Weather View 32 v70,2013-01-28 09:59:00,
2013-01-28 05:04:00,8.9,8.2,29.75,NNE,22,0.0,0.0,97,0.00,,,0.00,Weather View 32 v70,2013-01-28 10:04:00,
2013-01-28 05:09:00,9.2,8.8,29.75,NNE,22,0.0,0.0,98,0.00,,,0.00,Weather View 32 v70,2013-01-28 10:09:00,
2013-01-28 05:14:00,9.4,8.9,29.75,NNE,22,0.0,0.0,98,0.00,,,0.00,Weather View 32 v70,2013-01-28 10:14:00,
2013-01-28 05:19:00,9.6,9.4,29.75,WNW,292,0.0,0.0,99,0.00,,,0.00,Weather View 32 v70,2013-01-28 10:19:00,
2013-01-28 05:24:00,9.8,9.6,29.75,WNW,292,0.0,0.0,99,0.00,,,0.00,Weather View 32 v70,2013-01-28 10:24:00,
2013-01-28 05:29:00,9.9,9.7,29.74,NW,315,0.0,0.0,99,0.00,,,0.00,Weather View 32 v70,2013-01-28 10:29:00,
2013-01-28 05:34:00,9.8,9.6,29.75,NW,315,0.0,0.0,99,0.00,,,0.00,Weather View 32 v70,2013-01-28 10:34:00,
2013-01-28 05:39:00,9.8,9.6,29.75,NW,315,0.0,0.0,99,0.00,,,0.00,Weather View 32 v70,2013-01-28 10:39:00,
2013-01-28 05:44:00,9.7,9.5,29.75,NW,315,0.0,0.0,99,0.00,,,0.00,Weather View 32 v70,2013-01-28 10:44:00,
2013-01-28 05:49:00,9.7,9.5,29.75,NW,315,0.0,0.0,99,0.00,,,0.00,Weather View 32 v70,2013-01-28 10:49:00,
2013-01-28 05:54:00,9.7,9.5,29.75,NW,315,0.0,0.0,99,0.00,,,0.00,Weather View 32 v70,2013-01-28 10:54:00,
2013-01-28 05:59:00,9.7,9.5,29.75,NW,315,0.0,0.0,99,0.00,,,0.00,Weather View 32 v70,2013-01-28 10:59:00,
2013-01-28 06:04:00,9.7,9.5,29.74,NW,315,0.0,0.0,99,0.00,,,0.00,Weather View 32 v70,2013-01-28 11:04:00,
2013-01-28 06:09:00,9.7,9.2,29.74,NW,315,0.0,0.0,98,0.00,,,0.00,Weather View 32 v70,2013-01-28 11:09:00,
2013-01-28 06:14:00,9.8,9.6,29.74,NW,315,0.0,0.0,99,0.00,,,0.00,Weather View 32 v70,2013-01-28 11:14:00,
2013-01-28 06:20:00,9.8,9.6,29.74,NW,315,0.0,0.0,99,0.00,,,0.00,Weather View 32 v70,2013-01-28 11:20:00,
2013-01-28 06:25:00,9.9,9.4,29.73,NW,315,0.0,0.0,98,0.00,,,0.00,Weather View 32 v70,2013-01-28 11:25:00,
2013-01-28 06:30:00,10.1,9.4,29.73,NW,315,0.0,0.0,97,0.00,,,0.00,Weather View 32 v70,2013-01-28 11:30:00,
2013-01-28 06:35:00,10.2,9.5,29.73,NW,315,0.0,0.0,97,0.00,,,0.00,Weather View 32 v70,2013-01-28 11:35:00,
2013-01-28 06:40:00,10.2,9.5,29.73,NW,315,0.0,0.0,97,0.00,,,0.00,Weather View 32 v70,2013-01-28 11:40:00,
2013-01-28 06:45:00,10.3,9.6,29.73,NW,315,0.0,0.0,97,0.00,,,0.00,Weather View 32 v70,2013-01-28 11:45:00,
2013-01-28 06:50:00,10.4,9.5,29.73,NW,315,0.0,0.0,96,0.00,,,0.00,Weather View 32 v70,2013-01-28 11:50:00,
2013-01-28 06:55:00,10.6,9.7,29.73,NW,315,0.0,0.0,96,0.00,,,0.00,Weather View 32 v70,2013-01-28 11:55:00,
2013-01-28 07:00:00,10.7,9.6,29.73,NW,315,0.0,0.0,95,0.00,,,0.00,Weather View 32 v70,2013-01-28 12:00:00,
2013-01-28 07:05:00,10.8,9.7,29.73,NW,315,0.0,0.0,95,0.00,,,0.00,Weather View 32 v70,2013-01-28 12:05:00,
2013-01-28 07:10:00,10.9,9.8,29.72,NW,315,0.0,0.0,95,0.00,,,0.00,Weather View 32 v70,2013-01-28 12:10:00,
2013-01-28 07:15:00,11.0,9.9,29.72,NW,315,0.0,0.0,95,0.00,,,0.00,Weather View 32 v70,2013-01-28 12:15:00,
2013-01-28 07:20:00,11.2,10.1,29.72,NW,315,0.0,0.0,95,0.00,,,0.00,Weather View 32 v70,2013-01-28 12:20:00,
2013-01-28 07:25:00,11.3,9.9,29.72,NW,315,0.0,0.0,94,0.00,,,0.00,Weather View 32 v70,2013-01-28 12:25:00,
2013-01-28 07:30:00,11.3,9.9,29.72,NW,315,0.0,0.0,94,0.00,,,0.00,Weather View 32 v70,2013-01-28 12:30:00,
2013-01-28 07:35:00,11.4,10.0,29.72,NW,315,0.0,0.0,94,0.00,,,0.00,Weather View 32 v70,2013-01-28 12:35:00,
2013-01-28 07:40:00,11.4,10.0,29.72,NW,315,0.0,0.0,94,0.00,,,0.00,Weather View 32 v70,2013-01-28 12:40:00,
2013-01-28 07:45:00,11.7,10.3,29.72,NW,315,0.0,0.0,94,0.00,,,0.00,Weather View 32 v70,2013-01-28 12:45:00,
2013-01-28 07:50:00,11.8,10.4,29.71,NW,315,0.0,0.0,94,0.00,,,0.00,Weather View 32 v70,2013-01-28 12:50:00,
2013-01-28 07:55:00,12.0,10.6,29.71,NW,315,0.0,0.0,94,0.00,,,0.00,Weather View 32 v70,2013-01-28 12:55:00,
2013-01-28 08:00:00,12.2,10.6,29.72,WNW,292,0.0,0.0,93,0.00,,,0.00,Weather View 32 v70,2013-01-28 13:00:00,
2013-01-28 08:05:00,12.4,10.8,29.72,West,270,0.0,0.0,93,0.00,,,0.00,Weather View 32 v70,2013-01-28 13:05:00,
2013-01-28 08:10:00,12.7,11.1,29.71,West,270,0.0,0.0,93,0.00,,,0.00,Weather View 32 v70,2013-01-28 13:10:00,
2013-01-28 08:15:00,13.1,11.5,29.72,West,270,0.0,0.0,93,0.00,,,0.00,Weather View 32 v70,2013-01-28 13:15:00,
2013-01-28 08:20:00,13.3,11.4,29.72,West,270,0.0,0.0,92,0.00,,,0.00,Weather View 32 v70,2013-01-28 13:20:00,
2013-01-28 08:25:00,13.4,11.5,29.71,NNE,22,0.0,0.0,92,0.00,,,0.00,Weather View 32 v70,2013-01-28 13:25:00,
2013-01-28 08:30:00,13.8,11.9,29.70,NNE,22,0.0,0.0,92,0.00,,,0.00,Weather View 32 v70,2013-01-28 13:30:00,
2013-01-28 08:35:00,14.2,11.8,29.70,ENE,67,0.0,0.0,90,0.00,,,0.00,Weather View 32 v70,2013-01-28 13:35:00,
2013-01-28 08:40:00,14.7,12.3,29.70,North,360,0.0,0.0,90,0.00,,,0.00,Weather View 32 v70,2013-01-28 13:40:00,
2013-01-28 08:45:00,15.2,12.5,29.69,WNW,292,0.0,0.0,89,0.00,,,0.00,Weather View 32 v70,2013-01-28 13:45:00,
2013-01-28 08:50:00,15.3,12.1,29.69,West,270,0.0,0.0,87,0.00,,,0.00,Weather View 32 v70,2013-01-28 13:50:00,
2013-01-28 08:55:00,15.3,11.6,29.70,WNW,292,0.0,0.0,85,0.00,,,0.00,Weather View 32 v70,2013-01-28 13:55:00,
2013-01-28 09:00:00,15.4,11.7,29.70,WNW,292,0.0,0.0,85,0.00,,,0.00,Weather View 32 v70,2013-01-28 14:00:00,
2013-01-28 09:05:00,15.8,12.1,29.69,WNW,292,0.0,0.0,85,0.00,,,0.00,Weather View 32 v70,2013-01-28 14:05:00,
2013-01-28 09:10:00,16.1,12.1,29.68,North,360,0.0,0.0,84,0.00,,,0.00,Weather View 32 v70,2013-01-28 14:10:00,
2013-01-28 09:15:00,16.6,12.6,29.67,North,360,0.0,0.0,84,0.00,,,0.00,Weather View 32 v70,2013-01-28 14:15:00,
2013-01-28 09:20:00,16.8,12.5,29.67,WSW,247,0.0,0.0,83,0.00,,,0.00,Weather View 32 v70,2013-01-28 14:20:00,
2013-01-28 09:25:00,17.0,12.2,29.67,WSW,247,0.0,0.0,81,0.00,,,0.00,Weather View 32 v70,2013-01-28 14:25:00,
2013-01-28 09:30:00,17.3,11.9,29.67,ENE,67,0.0,0.0,79,0.00,,,0.00,Weather View 32 v70,2013-01-28 14:30:00,
2013-01-28 09:35:00,17.9,11.9,29.67,SSE,157,0.0,0.0,77,0.00,,,0.00,Weather View 32 v70,2013-01-28 14:35:00,
2013-01-28 09:40:00,18.5,10.7,29.66,South,180,5.0,11.0,71,0.00,,,0.00,Weather View 32 v70,2013-01-28 14:40:00,
2013-01-28 09:45:00,18.7,12.4,29.66,SSE,157,3.0,11.0,76,0.00,,,0.00,Weather View 32 v70,2013-01-28 14:45:00,
2013-01-28 09:50:00,18.9,12.3,29.65,ESE,112,7.0,12.0,75,0.00,,,0.00,Weather View 32 v70,2013-01-28 14:50:00,
2013-01-28 09:55:00,18.6,13.7,29.65,SSE,157,8.0,12.0,81,0.00,,,0.00,Weather View 32 v70,2013-01-28 14:55:00,
2013-01-28 10:00:00,18.4,14.4,29.65,SSE,157,8.0,14.0,84,0.00,,,0.00,Weather View 32 v70,2013-01-28 15:00:00,
2013-01-28 10:05:00,18.3,15.9,29.65,SSE,157,12.0,17.0,90,0.00,,,0.00,Weather View 32 v70,2013-01-28 15:05:00,
2013-01-28 10:10:00,18.1,16.9,29.65,SSE,157,14.0,20.0,95,0.00,,,0.00,Weather View 32 v70,2013-01-28 15:10:00,
2013-01-28 10:15:00,18.1,17.9,29.65,SSE,157,12.0,20.0,99,0.00,,,0.00,Weather View 32 v70,2013-01-28 15:15:00,
2013-01-28 10:20:00,18.1,18.1,29.65,SE,135,10.0,20.0,100,0.00,,,0.00,Weather View 32 v70,2013-01-28 15:20:00,
2013-01-28 10:25:00,18.1,18.1,29.64,SSE,157,6.0,25.0,100,0.00,,,0.00,Weather View 32 v70,2013-01-28 15:25:00,
2013-01-28 10:30:00,18.2,18.2,29.65,SSE,157,7.0,25.0,100,0.00,,,0.00,Weather View 32 v70,2013-01-28 15:30:00,
2013-01-28 10:35:00,18.6,18.6,29.65,SSE,157,4.0,25.0,100,0.00,,,0.00,Weather View 32 v70,2013-01-28 15:35:00,
2013-01-28 10:40:00,18.8,18.8,29.65,ESE,112,5.0,25.0,100,0.00,,,0.00,Weather View 32 v70,2013-01-28 15:40:00,
2013-01-28 10:45:00,18.7,18.7,29.65,ESE,112,4.0,25.0,100,0.00,,,0.00,Weather View 32 v70,2013-01-28 15:45:00,
2013-01-28 10:50:00,19.1,19.1,29.64,SSW,202,9.0,25.0,100,0.00,,,0.00,Weather View 32 v70,2013-01-28 15:50:00,
2013-01-28 10:55:00,19.1,19.1,29.64,ESE,112,17.0,25.0,100,0.00,,,0.00,Weather View 32 v70,2013-01-28 15:55:00,
2013-01-28 11:00:00,19.2,19.2,29.63,SSE,157,6.0,25.0,100,0.00,,,0.00,Weather View 32 v70,2013-01-28 16:00:00,
2013-01-28 11:05:00,19.2,19.2,29.62,ESE,112,2.0,25.0,100,0.00,,,0.00,Weather View 32 v70,2013-01-28 16:05:00,
2013-01-28 11:10:00,19.6,19.6,29.63,SSW,202,5.0,25.0,100,0.00,,,0.00,Weather View 32 v70,2013-01-28 16:10:00,
2013-01-28 11:15:00,19.9,19.9,29.63,ESE,112,0.0,25.0,100,0.00,,,0.00,Weather View 32 v70,2013-01-28 16:15:00,
2013-01-28 11:20:00,20.3,20.3,29.62,SSW,202,4.0,25.0,100,0.00,,,0.00,Weather View 32 v70,2013-01-28 16:20:00,
2013-01-28 11:25:00,20.3,20.3,29.61,SE,135,5.0,25.0,100,0.00,,,0.00,Weather View 32 v70,2013-01-28 16:25:00,
2013-01-28 11:30:00,19.9,19.9,29.61,SSW,202,6.0,18.0,100,0.00,,,0.00,Weather View 32 v70,2013-01-28 16:30:00,
2013-01-28 11:35:00,20.0,20.0,29.61,South,180,4.0,18.0,100,0.00,,,0.00,Weather View 32 v70,2013-01-28 16:35:00,
2013-01-28 11:40:00,20.1,20.1,29.60,SSW,202,2.0,18.0,100,0.00,,,0.00,Weather View 32 v70,2013-01-28 16:40:00,
2013-01-28 11:46:00,20.3,20.3,29.59,ENE,67,4.0,18.0,100,0.00,,,0.00,Weather View 32 v70,2013-01-28 16:46:00,
2013-01-28 11:51:00,20.2,20.2,29.59,SSW,202,1.0,18.0,100,0.00,,,0.00,Weather View 32 v70,2013-01-28 16:51:00,
2013-01-28 11:56:00,20.6,20.6,29.58,NNW,337,0.0,18.0,100,0.00,,,0.00,Weather View 32 v70,2013-01-28 16:56:00,
2013-01-28 12:01:00,21.3,21.3,29.57,WSW,247,1.0,16.0,100,0.00,,,0.00,Weather View 32 v70,2013-01-28 17:01:00,
2013-01-28 12:06:00,21.6,21.6,29.56,SSW,202,0.0,16.0,100,0.00,,,0.00,Weather View 32 v70,2013-01-28 17:06:00,
2013-01-28 12:11:00,21.8,21.8,29.56,SSW,202,3.0,16.0,100,0.00,,,0.00,Weather View 32 v70,2013-01-28 17:11:00,
2013-01-28 12:16:00,21.7,21.7,29.55,SE,135,4.0,13.0,100,0.00,,,0.00,Weather View 32 v70,2013-01-28 17:16:00,
2013-01-28 12:21:00,21.8,21.8,29.55,SSW,202,3.0,13.0,100,0.00,,,0.00,Weather View 32 v70,2013-01-28 17:21:00,
2013-01-28 12:26:00,21.9,21.9,29.54,ESE,112,1.0,13.0,100,0.00,,,0.00,Weather View 32 v70,2013-01-28 17:26:00,
2013-01-28 12:31:00,21.7,21.7,29.54,ESE,112,3.0,12.0,100,0.00,,,0.00,Weather View 32 v70,2013-01-28 17:31:00,
2013-01-28 12:36:00,21.3,21.3,29.53,South,180,8.0,12.0,100,0.00,,,0.00,Weather View 32 v70,2013-01-28 17:36:00,
2013-01-28 12:41:00,21.3,21.3,29.52,South,180,7.0,12.0,100,0.00,,,0.00,Weather View 32 v70,2013-01-28 17:41:00,
2013-01-28 12:46:00,21.4,21.4,29.52,SW,225,0.0,12.0,100,0.00,,,0.00,Weather View 32 v70,2013-01-28 17:46:00,
2013-01-28 12:51:00,21.7,21.7,29.51,SSE,157,0.0,12.0,100,0.00,,,0.00,Weather View 32 v70,2013-01-28 17:51:00,
2013-01-28 12:56:00,22.0,22.0,29.51,WSW,247,2.0,12.0,100,0.00,,,0.00,Weather View 32 v70,2013-01-28 17:56:00,
2013-01-28 13:01:00,21.4,21.4,29.51,SSW,202,5.0,12.0,100,0.00,,,0.00,Weather View 32 v70,2013-01-28 18:01:00,
2013-01-28 13:06:00,21.4,21.4,29.51,WSW,247,1.0,12.0,100,0.00,,,0.00,Weather View 32 v70,2013-01-28 18:06:00,
2013-01-28 13:11:00,21.2,21.2,29.51,SSW,202,0.0,12.0,100,0.00,,,0.00,Weather View 32 v70,2013-01-28 18:11:00,
2013-01-28 13:16:00,21.1,21.1,29.51,North,360,1.0,12.0,100,0.00,,,0.00,Weather View 32 v70,2013-01-28 18:16:00,
2013-01-28 13:21:00,21.6,21.6,29.49,NNW,337,0.0,12.0,100,0.00,,,0.00,Weather View 32 v70,2013-01-28 18:21:00,
2013-01-28 13:26:00,21.8,21.8,29.49,West,270,0.0,12.0,100,0.00,,,0.00,Weather View 32 v70,2013-01-28 18:26:00,
2013-01-28 13:31:00,21.9,21.9,29.49,West,270,2.0,12.0,100,0.00,,,0.00,Weather View 32 v70,2013-01-28 18:31:00,
2013-01-28 13:36:00,21.4,21.4,29.49,NNW,337,0.0,12.0,100,0.00,,,0.00,Weather View 32 v70,2013-01-28 18:36:00,
2013-01-28 13:41:00,21.4,21.4,29.49,NW,315,0.0,12.0,100,0.00,,,0.00,Weather View 32 v70,2013-01-28 18:41:00,
2013-01-28 13:46:00,21.4,21.4,29.48,NNE,22,2.0,10.0,100,0.00,,,0.00,Weather View 32 v70,2013-01-28 18:46:00,
2013-01-28 13:51:00,21.3,21.3,29.48,North,360,0.0,10.0,100,0.00,,,0.00,Weather View 32 v70,2013-01-28 18:51:00,
2013-01-28 13:56:00,21.3,21.3,29.47,SE,135,0.0,10.0,100,0.00,,,0.00,Weather View 32 v70,2013-01-28 18:56:00,
2013-01-28 14:01:00,21.1,21.1,29.47,ENE,67,0.0,9.0,100,0.00,,,0.00,Weather View 32 v70,2013-01-28 19:01:00,
2013-01-28 14:06:00,21.2,21.2,29.47,WNW,292,0.0,9.0,100,0.00,,,0.00,Weather View 32 v70,2013-01-28 19:06:00,
2013-01-28 14:11:00,21.1,21.1,29.47,NNW,337,2.0,9.0,100,0.00,,,0.00,Weather View 32 v70,2013-01-28 19:11:00,
2013-01-28 14:16:00,21.1,21.1,29.46,North,360,1.0,6.0,100,0.00,,,0.00,Weather View 32 v70,2013-01-28 19:16:00,
2013-01-28 14:21:00,20.9,20.9,29.46,NNE,22,0.0,6.0,100,0.00,,,0.00,Weather View 32 v70,2013-01-28 19:21:00,
2013-01-28 14:26:00,20.9,20.9,29.45,North,360,0.0,6.0,100,0.00,,,0.00,Weather View 32 v70,2013-01-28 19:26:00,
2013-01-28 14:31:00,21.0,21.0,29.45,ENE,67,1.0,6.0,100,0.00,,,0.00,Weather View 32 v70,2013-01-28 19:31:00,
2013-01-28 14:36:00,21.2,21.2,29.45,ENE,67,0.0,6.0,100,0.00,,,0.00,Weather View 32 v70,2013-01-28 19:36:00,
2013-01-28 14:41:00,21.4,21.4,29.44,East,90,1.0,6.0,100,0.00,,,0.00,Weather View 32 v70,2013-01-28 19:41:00,
2013-01-28 14:46:00,21.4,21.4,29.44,East,90,0.0,6.0,100,0.00,,,0.00,Weather View 32 v70,2013-01-28 19:46:00,
2013-01-28 14:51:00,21.7,21.7,29.44,NE,45,0.0,6.0,100,0.00,,,0.00,Weather View 32 v70,2013-01-28 19:51:00,
2013-01-28 14:56:00,21.6,21.6,29.43,West,270,2.0,7.0,100,0.00,,,0.00,Weather View 32 v70,2013-01-28 19:56:00,
2013-01-28 15:01:00,21.2,21.2,29.44,NW,315,3.0,7.0,100,0.00,,,0.00,Weather View 32 v70,2013-01-28 20:01:00,
2013-01-28 15:06:00,21.2,21.2,29.44,NNW,337,2.0,7.0,100,0.00,,,0.00,Weather View 32 v70,2013-01-28 20:06:00,
2013-01-28 15:11:00,21.4,21.4,29.44,NW,315,0.0,7.0,100,0.00,,,0.00,Weather View 32 v70,2013-01-28 20:11:00,
2013-01-28 15:16:00,21.4,21.4,29.43,NNW,337,0.0,7.0,100,0.00,,,0.00,Weather View 32 v70,2013-01-28 20:16:00,
2013-01-28 15:21:00,21.4,21.4,29.43,WNW,292,0.0,7.0,100,0.00,,,0.00,Weather View 32 v70,2013-01-28 20:21:00,
2013-01-28 15:26:00,21.3,21.3,29.43,NNW,337,0.0,7.0,100,0.00,,,0.00,Weather View 32 v70,2013-01-28 20:26:00,
2013-01-28 15:31:00,21.2,21.2,29.43,North,360,0.0,7.0,100,0.00,,,0.00,Weather View 32 v70,2013-01-28 20:31:00,
2013-01-28 15:36:00,21.2,21.2,29.42,North,360,1.0,7.0,100,0.00,,,0.00,Weather View 32 v70,2013-01-28 20:36:00,
2013-01-28 15:41:00,21.2,21.2,29.41,North,360,0.0,7.0,100,0.00,,,0.00,Weather View 32 v70,2013-01-28 20:41:00,
2013-01-28 15:46:00,21.1,21.1,29.42,NW,315,0.0,7.0,100,0.00,,,0.00,Weather View 32 v70,2013-01-28 20:46:00,
2013-01-28 15:51:00,21.2,21.2,29.41,WNW,292,0.0,7.0,100,0.00,,,0.00,Weather View 32 v70,2013-01-28 20:51:00,
2013-01-28 15:56:00,21.1,21.1,29.41,NW,315,0.0,7.0,100,0.00,,,0.00,Weather View 32 v70,2013-01-28 20:56:00,
2013-01-28 16:01:00,21.1,21.1,29.41,NNW,337,0.0,6.0,100,0.00,,,0.00,Weather View 32 v70,2013-01-28 21:01:00,
2013-01-28 16:06:00,21.3,21.3,29.41,NNW,337,0.0,6.0,100,0.00,,,0.00,Weather View 32 v70,2013-01-28 21:06:00,
2013-01-28 16:11:00,21.4,21.4,29.42,West,270,0.0,6.0,100,0.00,,,0.00,Weather View 32 v70,2013-01-28 21:11:00,
2013-01-28 16:16:00,21.2,21.2,29.42,NNW,337,0.0,5.0,100,0.00,,,0.00,Weather View 32 v70,2013-01-28 21:16:00,
2013-01-28 16:21:00,21.1,21.1,29.41,North,360,0.0,5.0,100,0.00,,,0.00,Weather View 32 v70,2013-01-28 21:21:00,
2013-01-28 16:26:00,21.0,21.0,29.41,NNE,22,0.0,5.0,100,0.00,,,0.00,Weather View 32 v70,2013-01-28 21:26:00,
2013-01-28 16:31:00,20.9,20.9,29.40,North,360,0.0,5.0,100,0.00,,,0.00,Weather View 32 v70,2013-01-28 21:31:00,
2013-01-28 16:36:00,20.9,20.9,29.39,NNE,22,0.0,5.0,100,0.00,,,0.00,Weather View 32 v70,2013-01-28 21:36:00,
2013-01-28 16:41:00,20.9,20.9,29.40,NNE,22,0.0,5.0,100,0.00,,,0.00,Weather View 32 v70,2013-01-28 21:41:00,
2013-01-28 16:46:00,20.9,20.9,29.40,WNW,292,2.0,5.0,100,0.00,,,0.00,Weather View 32 v70,2013-01-28 21:46:00,
2013-01-28 16:51:00,20.8,20.8,29.40,WNW,292,0.0,5.0,100,0.00,,,0.00,Weather View 32 v70,2013-01-28 21:51:00,
2013-01-28 16:56:00,20.7,20.7,29.40,WNW,292,0.0,5.0,100,0.00,,,0.00,Weather View 32 v70,2013-01-28 21:56:00,
2013-01-28 17:01:00,20.7,20.7,29.41,WNW,292,0.0,5.0,100,0.00,,,0.00,Weather View 32 v70,2013-01-28 22:01:00,
2013-01-28 17:06:00,20.7,20.7,29.41,WNW,292,0.0,5.0,100,0.00,,,0.00,Weather View 32 v70,2013-01-28 22:06:00,
2013-01-28 17:11:00,20.7,20.7,29.41,WNW,292,0.0,5.0,100,0.00,,,0.00,Weather View 32 v70,2013-01-28 22:11:00,
2013-01-28 17:16:00,20.7,20.7,29.40,South,180,0.0,5.0,100,0.00,,,0.00,Weather View 32 v70,2013-01-28 22:16:00,
2013-01-28 17:21:00,20.8,20.8,29.40,NNE,22,0.0,5.0,100,0.00,,,0.00,Weather View 32 v70,2013-01-28 22:21:00,
2013-01-28 17:26:00,20.9,20.9,29.39,North,360,0.0,5.0,100,0.00,,,0.00,Weather View 32 v70,2013-01-28 22:26:00,
2013-01-28 17:31:00,21.1,21.1,29.39,NNE,22,0.0,5.0,100,0.00,,,0.00,Weather View 32 v70,2013-01-28 22:31:00,
2013-01-28 17:36:00,21.3,21.3,29.39,WSW,247,0.0,6.0,100,0.00,,,0.00,Weather View 32 v70,2013-01-28 22:36:00,
2013-01-28 17:41:00,21.4,21.4,29.39,WSW,247,5.0,6.0,100,0.00,,,0.00,Weather View 32 v70,2013-01-28 22:41:00,
2013-01-28 17:46:00,21.6,21.6,29.39,SW,225,0.0,7.0,100,0.00,,,0.00,Weather View 32 v70,2013-01-28 22:46:00,
2013-01-28 17:51:00,21.8,21.8,29.39,WSW,247,1.0,7.0,100,0.00,,,0.00,Weather View 32 v70,2013-01-28 22:51:00,
2013-01-28 17:56:00,22.0,22.0,29.39,NW,315,1.0,7.0,100,0.00,,,0.00,Weather View 32 v70,2013-01-28 22:56:00,
2013-01-28 18:01:00,22.2,22.2,29.38,SSE,157,0.0,7.0,100,0.00,,,0.00,Weather View 32 v70,2013-01-28 23:01:00,
2013-01-28 18:06:00,22.3,22.3,29.38,WNW,292,0.0,10.0,100,0.00,,,0.00,Weather View 32 v70,2013-01-28 23:06:00,
2013-01-28 18:11:00,22.4,22.4,29.39,SSW,202,0.0,10.0,100,0.00,,,0.00,Weather View 32 v70,2013-01-28 23:11:00,
2013-01-28 18:16:00,22.4,22.4,29.39,SSW,202,0.0,10.0,100,0.00,,,0.00,Weather View 32 v70,2013-01-28 23:16:00,
2013-01-28 18:21:00,22.6,22.6,29.38,SE,135,1.0,16.0,100,0.00,,,0.00,Weather View 32 v70,2013-01-28 23:21:00,
2013-01-28 18:26:00,22.8,22.8,29.37,NE,45,0.0,16.0,100,0.00,,,0.00,Weather View 32 v70,2013-01-28 23:26:00,
2013-01-28 18:31:00,22.9,22.9,29.37,NW,315,0.0,16.0,100,0.00,,,0.00,Weather View 32 v70,2013-01-28 23:31:00,
2013-01-28 18:36:00,23.0,23.0,29.37,WNW,292,0.0,16.0,100,0.00,,,0.00,Weather View 32 v70,2013-01-28 23:36:00,
2013-01-28 18:41:00,23.0,23.0,29.37,WSW,247,2.0,16.0,100,0.00,,,0.00,Weather View 32 v70,2013-01-28 23:41:00,
2013-01-28 18:46:00,23.1,23.1,29.38,West,270,1.0,16.0,100,0.00,,,0.00,Weather View 32 v70,2013-01-28 23:46:00,
2013-01-28 18:51:00,23.2,23.2,29.37,WSW,247,2.0,16.0,100,0.00,,,0.00,Weather View 32 v70,2013-01-28 23:51:00,
2013-01-28 18:56:00,23.3,23.3,29.37,SW,225,5.0,16.0,100,0.00,,,0.00,Weather View 32 v70,2013-01-28 23:56:00,
2013-01-28 19:01:00,23.3,23.3,29.37,SW,225,0.0,16.0,100,0.00,,,0.00,Weather View 32 v70,2013-01-29 00:01:00,
2013-01-28 19:06:00,23.2,23.2,29.38,SSE,157,1.0,16.0,100,0.00,,,0.00,Weather View 32 v70,2013-01-29 00:06:00,
2013-01-28 19:11:00,23.2,23.2,29.37,NW,315,0.0,16.0,100,0.00,,,0.00,Weather View 32 v70,2013-01-29 00:11:00,
2013-01-28 19:16:00,23.2,23.2,29.37,SW,225,2.0,16.0,100,0.00,,,0.00,Weather View 32 v70,2013-01-29 00:16:00,
2013-01-28 19:21:00,23.2,23.2,29.38,SSW,202,7.0,16.0,100,0.00,,,0.00,Weather View 32 v70,2013-01-29 00:21:00,
2013-01-28 19:26:00,23.2,23.2,29.37,SW,225,1.0,16.0,100,0.00,,,0.00,Weather View 32 v70,2013-01-29 00:26:00,
2013-01-28 19:31:00,23.2,23.2,29.37,SSW,202,4.0,10.0,100,0.00,,,0.00,Weather View 32 v70,2013-01-29 00:31:00,
2013-01-28 19:36:00,23.2,23.2,29.37,SE,135,1.0,10.0,100,0.00,,,0.00,Weather View 32 v70,2013-01-29 00:36:00,
2013-01-28 19:41:00,23.3,23.3,29.37,South,180,0.0,10.0,100,0.00,,,0.00,Weather View 32 v70,2013-01-29 00:41:00,
2013-01-28 19:46:00,23.4,23.4,29.36,WSW,247,0.0,10.0,100,0.00,,,0.00,Weather View 32 v70,2013-01-29 00:46:00,
2013-01-28 19:51:00,23.4,23.4,29.36,ENE,67,0.0,10.0,100,0.00,,,0.00,Weather View 32 v70,2013-01-29 00:51:00,
2013-01-28 19:56:00,23.5,23.5,29.36,North,360,1.0,10.0,100,0.00,,,0.00,Weather View 32 v70,2013-01-29 00:56:00,
2013-01-28 20:01:00,23.5,23.5,29.36,NNE,22,0.0,10.0,100,0.00,,,0.00,Weather View 32 v70,2013-01-29 01:01:00,
2013-01-28 20:06:00,23.6,23.6,29.36,ENE,67,7.0,10.0,100,0.00,,,0.00,Weather View 32 v70,2013-01-29 01:06:00,
2013-01-28 20:11:00,23.8,23.8,29.36,SSW,202,2.0,10.0,100,0.00,,,0.00,Weather View 32 v70,2013-01-29 01:11:00,
2013-01-28 20:16:00,23.9,23.9,29.36,East,90,8.0,10.0,100,0.00,,,0.00,Weather View 32 v70,2013-01-29 01:16:00,
2013-01-28 20:21:00,23.9,23.9,29.35,SE,135,2.0,10.0,100,0.00,,,0.00,Weather View 32 v70,2013-01-29 01:21:00,
2013-01-28 20:26:00,24.0,24.0,29.35,ENE,67,6.0,10.0,100,0.00,,,0.00,Weather View 32 v70,2013-01-29 01:26:00,
2013-01-28 20:31:00,24.1,24.1,29.35,ESE,112,2.0,10.0,100,0.00,,,0.00,Weather View 32 v70,2013-01-29 01:31:00,
2013-01-28 20:36:00,24.2,24.2,29.35,South,180,3.0,10.0,100,0.00,,,0.00,Weather View 32 v70,2013-01-29 01:36:00,
2013-01-28 20:41:00,24.2,24.2,29.35,ENE,67,0.0,10.0,100,0.00,,,0.00,Weather View 32 v70,2013-01-29 01:41:00,
2013-01-28 20:46:00,24.3,24.3,29.35,NW,315,1.0,10.0,100,0.00,,,0.00,Weather View 32 v70,2013-01-29 01:46:00,
2013-01-28 20:51:00,24.4,24.4,29.35,North,360,4.0,10.0,100,0.00,,,0.00,Weather View 32 v70,2013-01-29 01:51:00,
2013-01-28 20:56:00,24.4,24.4,29.35,ENE,67,0.0,10.0,100,0.00,,,0.00,Weather View 32 v70,2013-01-29 01:56:00,
2013-01-28 21:01:00,24.4,24.4,29.35,North,360,2.0,10.0,100,0.00,,,0.00,Weather View 32 v70,2013-01-29 02:01:00,
2013-01-28 21:06:00,24.5,24.5,29.35,ESE,112,0.0,10.0,100,0.00,,,0.00,Weather View 32 v70,2013-01-29 02:06:00,
2013-01-28 21:11:00,24.6,24.6,29.35,ESE,112,0.0,10.0,100,0.00,,,0.00,Weather View 32 v70,2013-01-29 02:11:00,
2013-01-28 21:16:00,24.7,24.7,29.35,ENE,67,2.0,10.0,100,0.00,,,0.00,Weather View 32 v70,2013-01-29 02:16:00,
2013-01-28 21:21:00,24.4,24.4,29.35,East,90,5.0,10.0,100,0.00,,,0.00,Weather View 32 v70,2013-01-29 02:21:00,
2013-01-28 21:26:00,24.4,24.4,29.34,ENE,67,4.0,10.0,100,0.00,,,0.00,Weather View 32 v70,2013-01-29 02:26:00,
2013-01-28 21:31:00,24.4,24.4,29.34,ENE,67,1.0,8.0,100,0.00,,,0.00,Weather View 32 v70,2013-01-29 02:31:00,
2013-01-28 21:36:00,24.4,24.4,29.34,ESE,112,0.0,8.0,100,0.00,,,0.00,Weather View 32 v70,2013-01-29 02:36:00,
2013-01-28 21:41:00,24.2,24.2,29.34,ENE,67,0.0,8.0,100,0.00,,,0.00,Weather View 32 v70,2013-01-29 02:41:00,
2013-01-28 21:46:00,24.0,24.0,29.34,NW,315,0.0,8.0,100,0.00,,,0.00,Weather View 32 v70,2013-01-29 02:46:00,
2013-01-28 21:51:00,23.8,23.8,29.34,East,90,0.0,8.0,100,0.00,,,0.00,Weather View 32 v70,2013-01-29 02:51:00,
2013-01-28 21:57:00,23.9,23.9,29.34,NW,315,0.0,8.0,100,0.00,,,0.00,Weather View 32 v70,2013-01-29 02:57:00,
2013-01-28 22:02:00,23.5,23.5,29.34,NW,315,1.0,8.0,100,0.00,,,0.00,Weather View 32 v70,2013-01-29 03:02:00,
2013-01-28 22:07:00,23.2,23.2,29.35,NNW,337,1.0,8.0,100,0.00,,,0.00,Weather View 32 v70,2013-01-29 03:07:00,
2013-01-28 22:12:00,23.0,23.0,29.35,NNW,337,0.0,8.0,100,0.00,,,0.00,Weather View 32 v70,2013-01-29 03:12:00,
2013-01-28 22:17:00,23.0,23.0,29.34,ENE,67,0.0,8.0,100,0.00,,,0.00,Weather View 32 v70,2013-01-29 03:17:00,
2013-01-28 22:22:00,23.3,23.3,29.34,East,90,4.0,8.0,100,0.00,,,0.00,Weather View 32 v70,2013-01-29 03:22:00,
2013-01-28 22:27:00,23.3,23.3,29.35,ENE,67,1.0,8.0,100,0.00,,,0.00,Weather View 32 v70,2013-01-29 03:27:00,
2013-01-28 22:32:00,23.1,23.1,29.35,WNW,292,0.0,7.0,100,0.00,,,0.00,Weather View 32 v70,2013-01-29 03:32:00,
2013-01-28 22:37:00,23.0,23.0,29.35,SW,225,0.0,7.0,100,0.00,,,0.00,Weather View 32 v70,2013-01-29 03:37:00,
2013-01-28 22:42:00,22.9,22.9,29.35,SW,225,0.0,7.0,100,0.00,,,0.00,Weather View 32 v70,2013-01-29 03:42:00,
2013-01-28 22:47:00,22.9,22.9,29.35,ESE,112,0.0,6.0,100,0.00,,,0.00,Weather View 32 v70,2013-01-29 03:47:00,
2013-01-28 22:52:00,23.3,23.3,29.35,WNW,292,2.0,6.0,100,0.00,,,0.00,Weather View 32 v70,2013-01-29 03:52:00,
2013-01-28 22:57:00,23.0,23.0,29.35,NNW,337,0.0,6.0,100,0.00,,,0.00,Weather View 32 v70,2013-01-29 03:57:00,
2013-01-28 23:02:00,22.9,22.9,29.35,WSW,247,0.0,6.0,100,0.00,,,0.00,Weather View 32 v70,2013-01-29 04:02:00,
2013-01-28 23:07:00,22.8,22.8,29.35,WSW,247,0.0,6.0,100,0.00,,,0.00,Weather View 32 v70,2013-01-29 04:07:00,
2013-01-28 23:12:00,22.8,22.8,29.35,WSW,247,0.0,6.0,100,0.00,,,0.00,Weather View 32 v70,2013-01-29 04:12:00,
2013-01-28 23:17:00,22.7,22.7,29.35,WSW,247,0.0,6.0,100,0.00,,,0.00,Weather View 32 v70,2013-01-29 04:17:00,
2013-01-28 23:22:00,22.7,22.7,29.35,WSW,247,0.0,6.0,100,0.00,,,0.00,Weather View 32 v70,2013-01-29 04:22:00,
2013-01-28 23:27:00,22.7,22.7,29.35,WSW,247,0.0,6.0,100,0.00,,,0.00,Weather View 32 v70,2013-01-29 04:27:00,
2013-01-28 23:32:00,22.7,22.7,29.36,WSW,247,0.0,5.0,100,0.00,,,0.00,Weather View 32 v70,2013-01-29 04:32:00,
2013-01-28 23:37:00,22.6,22.6,29.36,WSW,247,0.0,5.0,100,0.00,,,0.00,Weather View 32 v70,2013-01-29 04:37:00,
2013-01-28 23:42:00,22.6,22.6,29.36,WSW,247,0.0,5.0,100,0.00,,,0.00,Weather View 32 v70,2013-01-29 04:42:00,
2013-01-28 23:47:00,22.6,22.6,29.36,WSW,247,0.0,5.0,100,0.00,,,0.00,Weather View 32 v70,2013-01-29 04:47:00,
2013-01-28 23:52:00,22.6,22.6,29.37,WSW,247,0.0,5.0,100,0.00,,,0.00,Weather View 32 v70,2013-01-29 04:52:00,
2013-01-28 23:57:00,22.5,22.5,29.37,WSW,247,0.0,5.0,100,0.00,,,0.00,Weather View 32 v70,2013-01-29 04:57:00,